Saturday, November 18, 2017, 10:02 PM EST
Back to Local

KIDI, Indiana / Stewart Field

Location: Indiana, PA, United States Lat: 40.633
Local Time: 10:02 PM EST ( 3:02 GMT) Lon: -79.1
Time Zone: US/Eastern Elev: 1407 ft

Show me the last for .
Show Decoded

2017-11-18 21:35 METAR KIDI 190235Z AUTO 00000KT 2SM BR FEW004 BKN009 OVC037 10/10 A2932 RMK A01
                 =
2017-11-18 21:15 METAR KIDI 190215Z AUTO 34013G19KT 4SM BR FEW006 BKN034 OVC055 11/10 A2930 RMK
                 A01 =
2017-11-18 20:55 METAR KIDI 190155Z AUTO VRB06KT 120V190 3SM BR FEW005 BKN030 OVC036 10/10 A2929
                 RMK A01 =
2017-11-18 20:35 METAR KIDI 190135Z AUTO 17007KT 2 1/2SM BR FEW007 SCT023 OVC034 10/09 A2930 RMK
                 A01 VIS 1 3/4V3 =
2017-11-18 20:15 METAR KIDI 190115Z AUTO 17007KT 4SM BR FEW004 SCT025 BKN031 11/09 A2930 RMK A01
                 =
2017-11-18 19:55 METAR KIDI 190055Z AUTO 16007KT 6SM HZ FEW004 SCT032 OVC041 11/08 A2931 RMK A01
                 =
2017-11-18 19:35 METAR KIDI 190035Z AUTO 16007G13KT 10SM OVC042 11/08 A2933 RMK A01 =
2017-11-18 19:15 METAR KIDI 190015Z AUTO 15006KT 10SM OVC043 10/08 A2935 RMK A01 =
2017-11-18 18:55 METAR KIDI 182355Z AUTO 16007KT 10SM BKN044 BKN055 OVC095 10/08 A2937 RMK A01 =
2017-11-18 18:35 METAR KIDI 182335Z AUTO 16006G15KT 10SM SCT044 BKN055 OVC095 10/08 A2936 RMK A01
                 =
2017-11-18 18:15 METAR KIDI 182315Z AUTO 15007G13KT 10SM OVC044 10/08 A2936 RMK A01 =
2017-11-18 17:55 METAR KIDI 182255Z AUTO 16008G15KT 10SM OVC043 10/08 A2939 RMK A01 =
2017-11-18 17:35 METAR KIDI 182235Z AUTO 17010G15KT 7SM FEW024 FEW032 OVC041 10/08 A2938 RMK A01
                 =
2017-11-18 17:15 METAR KIDI 182215Z AUTO 17009G18KT 10SM OVC041 10/08 A2940 RMK A01 =
2017-11-18 16:55 METAR KIDI 182155Z AUTO 16007G13KT 9SM OVC040 09/08 A2942 RMK A01 =
2017-11-18 16:35 METAR KIDI 182135Z AUTO 16008G16KT 9SM OVC040 09/08 A2941 RMK A01 =
2017-11-18 16:15 METAR KIDI 182115Z AUTO 16008G14KT 10SM OVC037 09/08 A2941 RMK A01 =
2017-11-18 15:55 METAR KIDI 182055Z AUTO 16012G19KT 10SM OVC037 09/08 A2942 RMK A01 =
2017-11-18 15:35 METAR KIDI 182035Z AUTO 15008KT 10SM OVC038 09/08 A2945 RMK A01 =
2017-11-18 15:15 METAR KIDI 182015Z AUTO 14008G14KT 10SM OVC037 09/08 A2947 RMK A01 =
2017-11-18 14:55 METAR KIDI 181955Z AUTO 14007KT 10SM OVC036 09/08 A2948 RMK A01 =
2017-11-18 14:35 METAR KIDI 181935Z AUTO 16007KT 6SM BR OVC036 09/09 A2951 RMK A01 =
2017-11-18 14:15 METAR KIDI 181915Z AUTO 00000KT 5SM BR FEW005 FEW012 OVC037 09/09 A2953 RMK A01
                 =
2017-11-18 13:55 METAR KIDI 181855Z AUTO 20005KT 2SM BR FEW012 BKN035 OVC040 08/08 A2955 RMK A01
                 VIS 1 1/2V3 =
2017-11-18 13:35 METAR KIDI 181835Z AUTO 20005KT 1 3/4SM BR FEW022 OVC029 09/08 A2957 RMK A01 =
2017-11-18 13:15 METAR KIDI 181815Z AUTO 19006G12KT 2SM BR OVC027 09/08 A2957 RMK A01 =
2017-11-18 12:55 METAR KIDI 181755Z AUTO 19007KT 9SM OVC027 09/08 A2958 RMK A01 =
2017-11-18 12:35 METAR KIDI 181735Z AUTO 19008KT 10SM OVC029 08/08 A2959 RMK A01 =
2017-11-18 12:15 METAR KIDI 181715Z AUTO 19008KT 4SM BR OVC030 08/08 A2961 RMK A01 =
2017-11-18 11:55 METAR KIDI 181655Z AUTO 20008KT 7SM BKN030 OVC042 08/08 A2963 RMK A01 =
2017-11-18 11:35 METAR KIDI 181635Z AUTO 18008KT 8SM OVC031 08/07 A2964 RMK A01 =
2017-11-18 11:15 METAR KIDI 181615Z AUTO 17006KT 3SM BR FEW014 FEW020 OVC033 07/07 A2967 RMK A01
                 =
2017-11-18 10:55 METAR KIDI 181555Z AUTO VRB04KT 3SM BR SCT013 BKN021 OVC033 07/07 A2968 RMK A01
                 =
2017-11-18 10:35 METAR KIDI 181535Z AUTO 17005KT 6SM BR FEW008 BKN013 OVC033 06/06 A2970 RMK A01
                 =
2017-11-18 10:15 METAR KIDI 181515Z AUTO 14005KT 1 1/2SM BR BKN008 BKN012 OVC018 06/06 A2971 RMK
                 A01 =
2017-11-18 09:55 METAR KIDI 181455Z AUTO 18004KT 1 3/4SM BR BKN013 OVC020 06/06 A2972 RMK A01 =
2017-11-18 09:35 METAR KIDI 181435Z AUTO 17006KT 2SM BR BKN019 OVC025 06/06 A2972 RMK A01 =
2017-11-18 09:15 METAR KIDI 181415Z AUTO 4.75000005KT 2 1/2SM BR OVC026 06/06 A2973 RMK A01 =
2017-11-18 08:55 METAR KIDI 181355Z AUTO 16004KT 2SM BR OVC029 06/05 A2974 RMK A01 =
2017-11-18 08:35 METAR KIDI 181335Z AUTO VRB03KT 1 1/2SM BR OVC031 05/05 A2975 RMK A01 =
2017-11-18 08:15 METAR KIDI 181315Z AUTO 17005KT 2SM BR OVC034 05/05 A2976 RMK A01 =
2017-11-18 07:55 METAR KIDI 181255Z AUTO 14007KT 2SM BR FEW028 OVC038 04/04 A2976 RMK A01 =
2017-11-18 07:35 METAR KIDI 181235Z AUTO 12005KT 3SM BR FEW004 SCT035 OVC040 04/04 A2977 RMK A01
                 =
2017-11-18 07:15 METAR KIDI 181215Z AUTO 11005KT 3SM BR FEW020 SCT028 BKN035 04/04 A2977 RMK A01
                 =
2017-11-18 06:55 METAR KIDI 181155Z AUTO 13005KT 2 1/2SM BR BKN029 OVC033 04/03 A2979 RMK A01 =
2017-11-18 06:35 METAR KIDI 181135Z AUTO 00000KT 4SM BR SCT030 BKN038 OVC060 04/03 A2978 RMK A01
                 =
2017-11-18 06:15 METAR KIDI 181115Z AUTO 11004KT 4SM BR BKN039 BKN050 OVC065 05/03 A2978 RMK A01
                 =
2017-11-18 05:55 METAR KIDI 181055Z AUTO 19004KT 6SM HZ FEW043 SCT055 BKN065 07/M02 A2978 RMK A01
                 =
2017-11-18 05:35 METAR KIDI 181035Z AUTO 17008KT 10SM SCT075 BKN100 OVC120 08/M05 A2977 RMK A01 =
2017-11-18 05:15 METAR KIDI 181015Z AUTO 17008KT 10SM BKN110 08/M05 A2978 RMK A01 =
2017-11-18 04:55 METAR KIDI 180955Z AUTO 14005KT 10SM OVC100 07/M05 A2979 RMK A01 =
2017-11-18 04:35 METAR KIDI 180935Z AUTO 00000KT 10SM BKN100 07/M05 A2981 RMK A01 =
2017-11-18 04:15 METAR KIDI 180915Z AUTO 17004KT 10SM BKN110 08/M05 A2980 RMK A01 =
2017-11-18 03:55 METAR KIDI 180855Z AUTO 16006KT 10SM SCT110 07/M05 A2981 RMK A01 =
2017-11-18 03:35 METAR KIDI 180835Z AUTO 16005KT 10SM FEW110 07/M05 A2983 RMK A01 =
2017-11-18 03:15 METAR KIDI 180815Z AUTO 15005KT 10SM CLR 06/M04 A2986 RMK A01 =
2017-11-18 02:55 METAR KIDI 180755Z AUTO 17007KT 10SM CLR 06/M04 A2987 RMK A01 =
2017-11-18 02:35 METAR KIDI 180735Z AUTO 17007KT 10SM CLR 06/M04 A2988 RMK A01 =
2017-11-18 02:15 METAR KIDI 180715Z AUTO 17006KT 10SM CLR 05/M04 A2987 RMK A01 =
2017-11-18 01:55 METAR KIDI 180655Z AUTO 17007KT 10SM CLR 05/M04 A2987 RMK A01 =
2017-11-18 01:35 METAR KIDI 180635Z AUTO 16008KT 10SM CLR 05/M04 A2988 RMK A01 =
2017-11-18 01:15 METAR KIDI 180615Z AUTO 15008G15KT 10SM CLR 05/M04 A2989 RMK A01 =
2017-11-18 00:55 METAR KIDI 180555Z AUTO 15009KT 10SM CLR 05/M03 A2991 RMK A01 =
2017-11-18 00:35 METAR KIDI 180535Z AUTO 17005G11KT 10SM CLR 04/M03 A2993 RMK A01 =
2017-11-18 00:15 METAR KIDI 180515Z AUTO 00000KT 10SM CLR 02/M03 A2995 RMK A01 =
2017-11-17 23:55 METAR KIDI 180455Z AUTO 00000KT 10SM CLR M00/M03 A2996 RMK A01 =
2017-11-17 23:35 METAR KIDI 180435Z AUTO 00000KT 10SM CLR M01/M03 A2997 RMK A01 =
2017-11-17 23:15 METAR KIDI 180415Z AUTO 00000KT 10SM CLR M00/M02 A2998 RMK A01 =
2017-11-17 22:55 METAR KIDI 180355Z AUTO 00000KT 10SM CLR M01/M03 A2999 RMK A01 =
2017-11-17 22:35 METAR KIDI 180335Z AUTO 00000KT 10SM CLR M01/M02 A3001 RMK A01 =
2017-11-17 22:15 METAR KIDI 180315Z AUTO 10004KT 10SM CLR M01/M02 A3001 RMK A01 =

Support USWX by starting your Amazon purchase here.